CheckWX is a tool to help pilots better visualize weather data.  It is not intended as a substitute for an official pre-flight weather briefing.

05:16:40 UTC

SPGM TAF
Tingo Maria Airport
Tingo Maria, Peru
SPGM 231700Z 2318/2418 36003KT 9999 FEW040 BKN120 TX33/2319Z TN23/2411Z TEMPO 2412/2414 8000 RA BR FEW020 OVC090

Feb-23@
18:00 UTC

Feb-23 @ 18:00 UTC

Feb-24@
18:00 UTC

Feb-24 @ 18:00 UTC

SPGM 231700Z 2318/2418 36003KT 9999 FEW040 BKN120 TX33/2319Z TN23/2411Z
Wind
  • 360° at 3 KTS
Cloud Levels
  • Few at 4,000' AGL
  • Broken at 12,000' AGL

Feb-24@
12:00 UTC

Feb-24 @ 12:00 UTC

Feb-24@
14:00 UTC

Feb-24 @ 14:00 UTC

TEMPO 2412/2414 8000 RA BR FEW020 OVC090

Temporary

Temporary Changes expected for less than half the time period

Conditions
Rain, Mist
Cloud Levels
  • Few at 2,000' AGL
  • Overcast at 9,000' AGL